Time;durP1;ratioP1;P1;durP2;ratioP2;P2;SDS_P1;SDS_P2;PMS_P1;PMS_P2;Temp;Humidity;BMP_temperature;BMP_pressure;BME280_temperature;BME280_humidity;BME280_pressure;Samples;Min_cycle;Max_cycle;Signal;HPM_P1;HPM_P2
2021/11/28 00:01:28;;;;;;;56.95;33.20;;;0.40;99.90;;;;;;2615450;47;20038;31
2021/11/28 00:04:04;;;;;;;66.40;34.92;;;0.40;99.90;;;;;;2614774;47;20027;31
2021/11/28 00:06:43;;;;;;;66.07;34.83;;;0.40;99.90;;;;;;2621109;47;20027;31
2021/11/28 00:09:41;;;;;;;66.32;34.47;;;0.30;99.90;;;;;;2602754;54;20903;31
2021/11/28 00:12:37;;;;;;;68.38;36.33;;;0.30;99.90;;;;;;2602485;54;20023;31
2021/11/28 00:15:15;;;;;;;66.00;35.57;;;0.40;99.90;;;;;;2602733;54;20429;31
2021/11/28 00:17:53;;;;;;;66.00;34.90;;;0.30;99.90;;;;;;2602713;54;22223;31
2021/11/28 00:20:28;;;;;;;64.25;35.10;;;0.30;99.90;;;;;;2602447;54;20256;31
2021/11/28 00:23:08;;;;;;;67.53;35.67;;;0.30;99.90;;;;;;2602360;54;20841;31
2021/11/28 00:25:44;;;;;;;62.55;34.42;;;0.30;99.90;;;;;;2601751;54;20030;31
2021/11/28 00:28:27;;;;;;;56.88;30.48;;;0.30;99.90;;;;;;2602532;54;20031;31
2021/11/28 00:31:00;;;;;;;51.92;28.50;;;0.30;99.90;;;;;;2603229;54;20838;31
2021/11/28 00:33:41;;;;;;;60.30;31.83;;;0.30;99.90;;;;;;2603407;54;20958;31
2021/11/28 00:36:17;;;;;;;68.28;36.63;;;0.30;99.90;;;;;;2603382;54;20137;31
2021/11/28 00:38:54;;;;;;;67.40;34.95;;;0.20;99.90;;;;;;2603078;54;20033;31
2021/11/28 00:41:37;;;;;;;69.13;36.88;;;0.20;99.90;;;;;;2602511;54;20093;31
2021/11/28 00:44:37;;;;;;;79.82;39.20;;;0.20;99.90;;;;;;2650006;39;20314;31
2021/11/28 00:47:11;;;;;;;78.72;41.25;;;0.20;99.90;;;;;;2603307;54;20033;31
2021/11/28 00:50:07;;;;;;;71.72;38.17;;;0.10;99.90;;;;;;2603205;54;20994;31
2021/11/28 00:52:43;;;;;;;73.75;40.13;;;0.00;99.90;;;;;;2621452;46;20093;31
2021/11/28 00:55:20;;;;;;;77.60;42.55;;;0.00;99.90;;;;;;2621726;46;20929;31
2021/11/28 00:57:59;;;;;;;81.72;44.03;;;0.00;99.90;;;;;;2603293;54;20880;31
2021/11/28 01:00:42;;;;;;;81.13;44.85;;;0.00;99.90;;;;;;2603114;54;20072;31
2021/11/28 01:03:20;;;;;;;87.43;46.23;;;-0.10;99.90;;;;;;2603366;54;20033;31
2021/11/28 01:05:58;;;;;;;79.85;42.55;;;-0.10;99.90;;;;;;2602638;54;21354;31
2021/11/28 01:08:34;;;;;;;83.53;42.67;;;-0.10;99.90;;;;;;2603336;54;20783;31
2021/11/28 01:11:11;;;;;;;75.83;43.83;;;-0.10;99.90;;;;;;2603417;54;21126;31
2021/11/28 01:14:01;;;;;;;76.70;41.20;;;-0.10;99.90;;;;;;2603348;54;20293;31
2021/11/28 01:16:44;;;;;;;79.35;42.83;;;-0.10;99.90;;;;;;2603237;54;20035;31
2021/11/28 01:19:19;;;;;;;79.93;43.83;;;-0.10;99.90;;;;;;2603193;54;20844;31
2021/11/28 01:21:59;;;;;;;64.88;36.22;;;-0.20;99.90;;;;;;2720422;39;20346;31
2021/11/28 01:24:34;;;;;;;81.25;42.25;;;-0.10;99.90;;;;;;2603318;54;20038;31
2021/11/28 01:27:12;;;;;;;84.50;44.45;;;-0.10;99.90;;;;;;2603430;54;20869;31
2021/11/28 01:29:47;;;;;;;83.03;45.03;;;-0.20;99.90;;;;;;2603049;54;20142;31
2021/11/28 01:32:22;;;;;;;84.95;48.30;;;-0.20;99.90;;;;;;2603341;54;20755;31
2021/11/28 01:34:58;;;;;;;86.47;45.03;;;-0.10;99.90;;;;;;2602509;54;20048;31
2021/11/28 01:37:37;;;;;;;79.35;42.78;;;-0.20;99.90;;;;;;2603217;54;20931;31
2021/11/28 01:40:17;;;;;;;82.53;45.20;;;-0.20;99.90;;;;;;2603336;54;20068;31
2021/11/28 01:42:53;;;;;;;87.45;46.30;;;-0.20;99.90;;;;;;2603087;54;20117;31
2021/11/28 01:45:28;;;;;;;80.95;44.80;;;-0.20;99.90;;;;;;2603320;54;20859;31
2021/11/28 01:48:07;;;;;;;83.78;44.03;;;-0.20;99.90;;;;;;2603261;54;20048;31
2021/11/28 01:50:44;;;;;;;75.40;43.05;;;-0.20;99.90;;;;;;2621483;46;20030;31
2021/11/28 01:53:23;;;;;;;91.78;46.88;;;-0.20;99.90;;;;;;2603012;54;20055;31
2021/11/28 01:55:59;;;;;;;80.65;44.00;;;-0.10;99.90;;;;;;2621504;46;22222;31
2021/11/28 01:58:41;;;;;;;94.35;47.03;;;-0.20;99.90;;;;;;2603313;54;20052;31
2021/11/28 02:01:22;;;;;;;89.78;49.85;;;-0.20;99.90;;;;;;2603010;54;20788;31
2021/11/28 02:03:58;;;;;;;85.88;45.72;;;-0.20;99.90;;;;;;2603118;54;20876;31
2021/11/28 02:06:33;;;;;;;84.13;46.22;;;-0.20;99.90;;;;;;2603177;54;20760;31
2021/11/28 02:09:13;;;;;;;94.75;47.17;;;-0.20;99.90;;;;;;2699631;39;20400;31
2021/11/28 02:11:51;;;;;;;86.33;46.60;;;-0.20;99.90;;;;;;2603058;54;20769;31
2021/11/28 02:14:26;;;;;;;90.50;48.25;;;-0.20;99.90;;;;;;2602955;54;20092;31
2021/11/28 02:17:02;;;;;;;91.38;47.42;;;-0.30;99.90;;;;;;2602997;54;20027;31
2021/11/28 02:19:37;;;;;;;83.93;45.40;;;-0.20;99.90;;;;;;2602335;54;20050;31
2021/11/28 02:22:16;;;;;;;88.45;46.85;;;-0.30;99.90;;;;;;2621309;46;20348;31
2021/11/28 02:24:52;;;;;;;84.50;45.65;;;-0.20;99.90;;;;;;2603213;54;20855;31
2021/11/28 02:27:30;;;;;;;84.00;43.97;;;-0.20;99.90;;;;;;2603172;54;20828;31
2021/11/28 02:30:06;;;;;;;86.03;45.92;;;-0.20;99.90;;;;;;2603119;54;20966;31
2021/11/28 02:32:42;;;;;;;80.45;43.85;;;-0.20;99.90;;;;;;2616583;46;20030;31
2021/11/28 02:35:19;;;;;;;90.05;44.85;;;-0.20;99.90;;;;;;2603022;54;20897;31
2021/11/28 02:38:01;;;;;;;84.78;44.70;;;-0.20;99.90;;;;;;2602943;54;20982;31
2021/11/28 02:40:37;;;;;;;88.85;44.58;;;-0.10;99.90;;;;;;2603153;54;20033;31
2021/11/28 02:43:14;;;;;;;86.35;46.25;;;-0.20;99.90;;;;;;2603035;54;20823;31
2021/11/28 02:45:48;;;;;;;82.03;43.13;;;-0.20;99.90;;;;;;2621406;46;20061;31
2021/11/28 02:48:25;;;;;;;88.43;45.95;;;-0.20;99.90;;;;;;2603022;54;22520;31
2021/11/28 02:51:03;;;;;;;79.20;43.10;;;-0.20;99.90;;;;;;2754665;31;21352;31
2021/11/28 02:53:43;;;;;;;81.45;42.75;;;-0.20;99.90;;;;;;2621330;46;20097;31
2021/11/28 02:56:21;;;;;;;79.05;41.30;;;-0.20;99.90;;;;;;2602100;54;20756;31
2021/11/28 02:58:55;;;;;;;79.97;41.83;;;-0.20;99.90;;;;;;2602782;54;20061;31
2021/11/28 03:01:31;;;;;;;79.90;42.20;;;-0.30;99.90;;;;;;2602192;54;20064;31
2021/11/28 03:04:26;;;;;;;85.85;41.78;;;-0.30;99.90;;;;;;2602840;54;20042;31
2021/11/28 03:07:02;;;;;;;76.05;40.45;;;-0.20;99.90;;;;;;2621268;46;20033;31
2021/11/28 03:09:42;;;;;;;85.90;43.92;;;-0.30;99.90;;;;;;2621596;46;20831;31
2021/11/28 03:12:16;;;;;;;75.35;41.60;;;-0.20;99.90;;;;;;2602919;54;20026;31
2021/11/28 03:14:51;;;;;;;80.90;42.80;;;-0.20;99.90;;;;;;2603054;54;20885;31
2021/11/28 03:17:27;;;;;;;76.15;41.55;;;-0.30;99.90;;;;;;2603024;54;20059;31
2021/11/28 03:20:02;;;;;;;;;;;-0.20;99.90;;;;;;2603073;54;20128;31
2021/11/28 03:22:41;;;;;;;;;;;-0.20;99.90;;;;;;2603148;54;19934;31
2021/11/28 03:25:23;;;;;;;82.30;41.60;;;-0.20;99.90;;;;;;2612522;46;20101;31
2021/11/28 03:28:00;;;;;;;74.25;40.63;;;-0.30;99.90;;;;;;2602786;54;20897;31
2021/11/28 03:30:34;;;;;;;76.93;39.60;;;-0.20;99.90;;;;;;2602900;54;20064;31
2021/11/28 03:33:33;;;;;;;64.95;36.50;;;-0.20;99.90;;;;;;2602787;54;20092;31
2021/11/28 03:36:30;;;;;;;63.00;33.85;;;-0.30;99.90;;;;;;2602434;54;20050;31
2021/11/28 03:39:09;;;;;;;79.65;40.72;;;-0.20;99.90;;;;;;2602706;54;20026;31
2021/11/28 03:41:53;;;;;;;73.33;40.17;;;-0.20;99.90;;;;;;2602821;54;20056;31
2021/11/28 03:44:32;;;;;;;68.53;37.05;;;-0.20;99.90;;;;;;2602820;54;20037;31
2021/11/28 03:47:12;;;;;;;55.95;30.50;;;-0.20;99.90;;;;;;2606563;47;20038;31
2021/11/28 03:49:50;;;;;;;71.75;39.80;;;-0.20;99.90;;;;;;2602631;54;20026;31
2021/11/28 03:52:29;;;;;;;73.93;39.65;;;-0.20;99.90;;;;;;2602428;54;20052;31
2021/11/28 03:55:09;;;;;;;67.75;36.40;;;-0.20;99.90;;;;;;2602771;54;20030;31
2021/11/28 03:57:48;;;;;;;75.50;39.67;;;-0.20;99.90;;;;;;2602971;54;20836;31
2021/11/28 04:00:25;;;;;;;82.80;40.40;;;-0.20;99.90;;;;;;2602688;54;20820;31
2021/11/28 04:03:08;;;;;;;81.00;41.30;;;-0.30;99.90;;;;;;2621157;47;20157;31
2021/11/28 04:05:47;;;;;;;81.00;41.03;;;-0.30;99.90;;;;;;2603306;54;20808;31
2021/11/28 04:08:25;;;;;;;82.53;40.50;;;-0.30;99.90;;;;;;2603386;54;20059;31
2021/11/28 04:11:06;;;;;;;75.75;39.75;;;-0.30;99.90;;;;;;2603579;54;20841;31
2021/11/28 04:13:47;;;;;;;81.70;42.57;;;-0.40;99.90;;;;;;2603215;54;20018;31
2021/11/28 04:16:26;;;;;;;81.18;42.92;;;-0.40;99.90;;;;;;2603445;54;20081;31
2021/11/28 04:19:07;;;;;;;78.05;42.03;;;-0.40;99.90;;;;;;2622083;46;20049;31
2021/11/28 04:21:47;;;;;;;76.38;41.28;;;-0.30;99.90;;;;;;2603426;54;20060;31
2021/11/28 04:24:23;;;;;;;79.40;42.47;;;-0.30;99.90;;;;;;2774365;31;22471;31
2021/11/28 04:27:03;;;;;;;81.18;43.03;;;-0.30;99.90;;;;;;2603537;54;20022;31
2021/11/28 04:29:37;;;;;;;77.38;42.20;;;-0.30;99.90;;;;;;2603439;54;20034;31
2021/11/28 04:32:19;;;;;;;72.85;40.10;;;-0.30;99.90;;;;;;2603371;54;20545;31
2021/11/28 04:35:02;;;;;;;73.50;40.03;;;-0.20;99.90;;;;;;2603395;54;20322;31
2021/11/28 04:37:38;;;;;;;80.25;42.28;;;-0.20;99.90;;;;;;2603304;54;20766;31
2021/11/28 04:40:16;;;;;;;72.93;40.38;;;-0.20;99.90;;;;;;2603361;54;20053;31
2021/11/28 04:42:55;;;;;;;76.65;40.95;;;-0.20;99.90;;;;;;2603192;54;20167;31
2021/11/28 04:45:32;;;;;;;80.72;42.97;;;-0.10;99.90;;;;;;2603222;54;20101;31
2021/11/28 04:48:14;;;;;;;109.30;52.80;;;-0.10;99.90;;;;;;2621671;46;20429;31
2021/11/28 04:50:53;;;;;;;125.45;61.40;;;-0.10;99.90;;;;;;2603502;54;20736;31
2021/11/28 04:53:30;;;;;;;98.15;51.75;;;-0.10;99.90;;;;;;2603423;54;20762;31
2021/11/28 04:58:39;;;;;;;90.63;49.42;;;0.00;99.90;;;;;;2621828;46;20060;31
2021/11/28 05:01:15;;;;;;;90.07;48.08;;;-0.10;99.90;;;;;;2621239;46;20019;31
2021/11/28 05:04:00;;;;;;;86.18;45.28;;;-0.10;99.90;;;;;;2603002;54;20165;31
2021/11/28 05:06:46;;;;;;;87.25;45.22;;;-0.10;99.90;;;;;;2603442;54;20034;31
2021/11/28 05:09:47;;;;;;;85.70;45.00;;;-0.10;99.90;;;;;;2603255;54;20895;31
2021/11/28 05:12:20;;;;;;;86.07;47.30;;;-0.10;99.90;;;;;;2603357;54;20033;31
2021/11/28 05:15:01;;;;;;;77.45;46.55;;;-0.10;99.90;;;;;;2602556;54;20796;31
2021/11/28 05:17:38;;;;;;;84.38;46.53;;;-0.10;99.90;;;;;;2603284;54;20033;31
2021/11/28 05:20:19;;;;;;;91.90;51.17;;;0.00;99.90;;;;;;2603412;54;20884;31
2021/11/28 05:23:01;;;;;;;;;;;0.00;99.90;;;;;;2622153;46;20851;31
2021/11/28 05:25:39;;;;;;;75.35;39.40;;;0.00;99.90;;;;;;2622025;46;19941;31
2021/11/28 05:28:17;;;;;;;76.05;40.60;;;0.00;99.90;;;;;;2603181;54;20915;31
2021/11/28 05:30:55;;;;;;;72.68;40.65;;;0.10;99.90;;;;;;2603174;54;20889;31
2021/11/28 05:33:53;;;;;;;73.23;41.17;;;0.00;99.90;;;;;;2603245;54;20973;31
2021/11/28 05:37:01;;;;;;;67.47;37.95;;;0.00;99.90;;;;;;2603189;54;20924;31
2021/11/28 05:39:43;;;;;;;105.97;54.60;;;0.10;99.90;;;;;;2603409;54;20091;31
2021/11/28 05:42:19;;;;;;;143.57;67.17;;;0.00;99.90;;;;;;2701639;39;20454;31
2021/11/28 05:44:57;;;;;;;151.40;70.10;;;0.00;99.90;;;;;;2602246;54;20466;31
2021/11/28 05:47:43;;;;;;;217.23;102.50;;;0.10;99.90;;;;;;2603144;54;20848;31
2021/11/28 05:50:44;;;;;;;125.45;63.63;;;0.00;99.90;;;;;;2621647;46;20115;31
2021/11/28 05:53:22;;;;;;;111.90;55.70;;;0.00;99.90;;;;;;2602975;54;21007;31
2021/11/28 05:55:57;;;;;;;96.82;51.05;;;-0.10;99.90;;;;;;2621640;46;20030;31
2021/11/28 05:58:35;;;;;;;83.97;45.20;;;-0.10;99.90;;;;;;2603151;54;20897;31
2021/11/28 06:01:11;;;;;;;83.50;45.17;;;-0.10;99.90;;;;;;2701598;39;20474;31
2021/11/28 06:03:46;;;;;;;;;;;-0.10;99.90;;;;;;2602656;54;20868;31
2021/11/28 06:06:21;;;;;;;73.50;41.03;;;-0.10;99.90;;;;;;2621675;46;20551;31
2021/11/28 06:09:15;;;;;;;85.93;44.78;;;-0.20;99.90;;;;;;2603200;54;20026;31
2021/11/28 06:11:56;;;;;;;84.13;42.78;;;-0.20;99.90;;;;;;2602854;54;20911;31
2021/11/28 06:14:31;;;;;;;82.60;44.50;;;-0.30;99.90;;;;;;2603054;54;20354;31
2021/11/28 06:17:21;;;;;;;77.17;41.07;;;-0.30;99.90;;;;;;2621691;46;20771;31
2021/11/28 06:20:20;;;;;;;72.32;41.00;;;-0.30;99.90;;;;;;2603078;54;21082;31
2021/11/28 06:23:09;;;;;;;72.05;45.00;;;-0.30;99.90;;;;;;2602864;54;20034;31
2021/11/28 06:25:43;;;;;;;86.53;50.17;;;-0.30;99.90;;;;;;2621500;46;20027;31
2021/11/28 06:28:41;;;;;;;87.55;48.70;;;-0.30;99.90;;;;;;2602889;54;20026;31
2021/11/28 06:31:17;;;;;;;87.35;47.75;;;-0.40;99.90;;;;;;2603068;54;20629;31
2021/11/28 06:34:13;;;;;;;79.18;43.10;;;-0.40;99.90;;;;;;2603277;54;20954;31
2021/11/28 06:37:06;;;;;;;97.05;55.05;;;-0.40;99.90;;;;;;2603018;54;20119;31
2021/11/28 06:40:37;;;;;;;87.85;50.80;;;-0.40;99.90;;;;;;2602968;54;20460;31
2021/11/28 06:43:26;;;;;;;92.55;54.67;;;-0.40;99.90;;;;;;2602908;54;20728;31
2021/11/28 06:46:07;;;;;;;84.15;46.58;;;-0.40;99.90;;;;;;2602798;54;20045;31
2021/11/28 06:48:46;;;;;;;85.60;49.00;;;-0.40;99.90;;;;;;2602763;54;20030;31
2021/11/28 06:52:00;;;;;;;71.70;40.95;;;-0.40;99.90;;;;;;2602900;54;20087;31
2021/11/28 06:55:08;;;;;;;75.00;40.40;;;-0.30;99.90;;;;;;2603152;54;20033;31
2021/11/28 06:57:44;;;;;;;83.43;43.47;;;-0.30;99.90;;;;;;2602882;54;25133;31
2021/11/28 07:00:20;;;;;;;77.93;41.45;;;-0.30;99.90;;;;;;2603118;54;20911;31
2021/11/28 07:02:59;;;;;;;80.72;45.00;;;-0.30;99.90;;;;;;2602798;54;20030;31
2021/11/28 07:05:54;;;;;;;84.95;45.65;;;-0.30;99.90;;;;;;2602852;54;20906;31
2021/11/28 07:08:32;;;;;;;89.85;46.70;;;-0.40;99.90;;;;;;2621252;46;22428;31
2021/11/28 07:11:07;;;;;;;79.93;44.10;;;-0.40;99.90;;;;;;2620995;46;20784;31
2021/11/28 07:13:49;;;;;;;80.50;45.13;;;-0.40;99.90;;;;;;2602048;54;20247;31
2021/11/28 07:16:24;;;;;;;85.85;45.17;;;-0.30;99.90;;;;;;2602160;54;20841;31
2021/11/28 07:19:03;;;;;;;83.75;45.80;;;-0.30;99.90;;;;;;2621598;46;20027;31
2021/11/28 07:22:04;;;;;;;77.33;38.67;;;-0.30;99.90;;;;;;2602914;54;20026;31
2021/11/28 07:24:44;;;;;;;86.43;46.50;;;-0.30;99.90;;;;;;2602239;54;20022;31
2021/11/28 07:27:20;;;;;;;82.78;45.10;;;-0.20;99.90;;;;;;2602801;54;20128;31
2021/11/28 07:30:00;;;;;;;77.47;42.42;;;-0.20;99.90;;;;;;2602393;54;20755;31
2021/11/28 07:32:39;;;;;;;84.35;46.05;;;-0.20;99.90;;;;;;2601945;54;20882;31
2021/11/28 07:35:43;;;;;;;82.80;44.13;;;-0.20;99.90;;;;;;2602824;54;20030;31
2021/11/28 07:38:30;;;;;;;88.20;48.35;;;-0.20;99.90;;;;;;2602763;54;20568;31
2021/11/28 07:41:10;;;;;;;72.60;44.37;;;-0.20;99.90;;;;;;2602946;54;20740;31
2021/11/28 07:43:56;;;;;;;86.28;46.35;;;-0.20;99.90;;;;;;2621475;46;20247;31
2021/11/28 07:46:55;;;;;;;83.28;44.03;;;-0.20;99.90;;;;;;2602667;54;20937;31
2021/11/28 07:49:36;;;;;;;89.13;50.30;;;-0.20;99.90;;;;;;2621174;47;20042;31
2021/11/28 07:52:27;;;;;;;133.77;80.95;;;-0.20;99.90;;;;;;2602922;54;20892;31
2021/11/28 07:55:05;;;;;;;139.48;83.40;;;-0.20;99.90;;;;;;2602651;54;20847;31
2021/11/28 07:58:06;;;;;;;122.30;70.72;;;-0.20;99.90;;;;;;2602492;54;20909;31
2021/11/28 08:01:03;;;;;;;84.00;47.97;;;-0.20;99.90;;;;;;2602937;54;20884;31
2021/11/28 08:03:43;;;;;;;85.00;48.28;;;-0.20;99.90;;;;;;2602754;54;20246;31
2021/11/28 08:06:50;;;;;;;86.67;47.23;;;-0.20;99.90;;;;;;2602572;54;20897;31
2021/11/28 08:09:55;;;;;;;88.33;48.07;;;-0.20;99.90;;;;;;2602687;54;21107;31
2021/11/28 08:12:32;;;;;;;162.75;85.45;;;-0.20;99.90;;;;;;2602660;54;20307;31
2021/11/28 08:15:15;;;;;;;195.13;106.40;;;-0.10;99.90;;;;;;2601854;54;20874;31
2021/11/28 08:17:50;;;;;;;166.32;90.13;;;-0.20;99.90;;;;;;2602619;54;21088;31
2021/11/28 08:20:26;;;;;;;143.73;81.40;;;-0.20;99.90;;;;;;2621196;47;20042;31
2021/11/28 08:23:06;;;;;;;130.75;75.10;;;-0.20;99.90;;;;;;2601812;54;20026;31
2021/11/28 08:25:46;;;;;;;133.97;76.50;;;-0.10;99.90;;;;;;2602633;54;20046;31
2021/11/28 08:28:22;;;;;;;120.90;69.33;;;-0.10;99.90;;;;;;2601855;54;20038;31
2021/11/28 08:30:58;;;;;;;115.47;68.77;;;-0.10;99.90;;;;;;2601906;54;20041;31
2021/11/28 08:33:52;;;;;;;128.05;72.93;;;-0.10;99.90;;;;;;2602494;54;20245;31
2021/11/28 08:36:52;;;;;;;117.10;65.45;;;-0.10;99.90;;;;;;2602439;54;20057;31
2021/11/28 08:39:32;;;;;;;99.20;59.70;;;0.00;99.90;;;;;;2602649;54;20048;31
2021/11/28 08:42:10;;;;;;;99.20;56.83;;;0.00;99.90;;;;;;2602702;54;20902;31
2021/11/28 08:44:48;;;;;;;99.37;56.57;;;0.10;99.90;;;;;;2602653;54;20909;31
2021/11/28 08:47:25;;;;;;;93.27;51.87;;;0.10;99.90;;;;;;2602618;54;20270;31
2021/11/28 08:50:00;;;;;;;85.43;48.83;;;0.10;99.90;;;;;;2601709;54;20565;31
2021/11/28 08:52:35;;;;;;;91.78;51.28;;;0.20;99.90;;;;;;2621886;46;20785;31
2021/11/28 08:55:12;;;;;;;82.30;49.25;;;0.20;99.90;;;;;;2602484;54;19941;31
2021/11/28 08:57:51;;;;;;;84.13;49.03;;;0.20;99.90;;;;;;2621396;46;20038;31
2021/11/28 09:00:25;;;;;;;76.68;45.50;;;0.30;99.90;;;;;;2603345;54;20030;31
2021/11/28 09:03:04;;;;;;;74.83;43.67;;;0.30;99.90;;;;;;2603513;54;20839;31
2021/11/28 09:05:40;;;;;;;76.80;43.90;;;0.40;99.90;;;;;;2700969;39;20898;31
2021/11/28 09:08:19;;;;;;;78.65;46.95;;;0.30;99.90;;;;;;2603291;54;20026;31
2021/11/28 09:10:54;;;;;;;99.03;57.50;;;0.40;99.90;;;;;;2603230;54;20901;31
2021/11/28 09:13:34;;;;;;;96.33;57.60;;;0.50;99.90;;;;;;2621695;46;20026;31
2021/11/28 09:16:11;;;;;;;91.47;54.28;;;0.50;99.90;;;;;;2603234;54;20033;31
2021/11/28 09:19:00;;;;;;;85.85;49.25;;;0.60;99.90;;;;;;2603213;54;20526;31
2021/11/28 09:21:37;;;;;;;90.40;50.33;;;0.60;99.90;;;;;;2603227;54;20032;31
2021/11/28 09:24:36;;;;;;;83.10;53.05;;;0.70;99.90;;;;;;2621688;46;20050;31
2021/11/28 09:27:13;;;;;;;89.70;54.00;;;0.70;99.90;;;;;;2603235;54;20084;31
2021/11/28 09:29:54;;;;;;;96.05;57.00;;;0.70;99.90;;;;;;2701688;39;20536;31
2021/11/28 09:35:03;;;;;;;85.85;51.55;;;0.80;99.90;;;;;;2603367;54;20026;31
2021/11/28 09:37:38;;;;;;;95.13;54.42;;;0.80;99.90;;;;;;2603327;54;20899;31
2021/11/28 09:40:14;;;;;;;84.40;50.20;;;0.90;99.90;;;;;;2603189;54;20027;31
2021/11/28 09:42:54;;;;;;;80.20;45.28;;;0.90;99.90;;;;;;2603075;54;21023;31
2021/11/28 09:45:33;;;;;;;81.35;49.05;;;1.00;99.90;;;;;;2608949;46;20097;31
2021/11/28 09:48:11;;;;;;;81.88;45.75;;;1.10;99.90;;;;;;2602431;54;20946;31
2021/11/28 09:50:47;;;;;;;85.05;48.95;;;1.00;99.90;;;;;;2602484;54;20089;31
2021/11/28 09:53:43;;;;;;;77.77;46.67;;;1.10;99.90;;;;;;2621644;46;20750;31
2021/11/28 09:58:53;;;;;;;82.20;50.10;;;1.00;99.90;;;;;;2602974;54;20030;31
2021/11/28 10:01:32;;;;;;;68.00;39.43;;;1.00;99.90;;;;;;2603413;54;20050;31
2021/11/28 10:04:08;;;;;;;76.20;46.70;;;1.00;99.90;;;;;;2603224;54;20911;31
2021/11/28 10:06:45;;;;;;;75.95;44.17;;;0.90;99.90;;;;;;2621371;46;20035;31
2021/11/28 10:09:24;;;;;;;72.32;43.20;;;1.00;99.90;;;;;;2621802;46;20026;31
2021/11/28 10:11:59;;;;;;;67.80;40.70;;;1.00;99.90;;;;;;2603302;54;20752;31
2021/11/28 10:14:35;;;;;;;73.78;43.20;;;1.10;99.90;;;;;;2621334;46;21631;31
2021/11/28 10:17:18;;;;;;;74.35;45.90;;;1.00;99.90;;;;;;2603028;54;20026;31
2021/11/28 10:19:54;;;;;;;100.50;55.30;;;1.10;99.90;;;;;;2602658;54;20026;31
2021/11/28 10:22:29;;;;;;;;;;;1.20;99.90;;;;;;2603140;54;20846;31
2021/11/28 10:25:11;;;;;;;95.00;52.03;;;1.20;99.90;;;;;;2602420;54;20011;31
2021/11/28 10:27:48;;;;;;;84.63;46.78;;;1.20;99.90;;;;;;2621694;46;20857;31
2021/11/28 10:30:37;;;;;;;71.15;42.50;;;1.20;99.90;;;;;;2621112;46;20840;31
2021/11/28 10:33:17;;;;;;;75.45;46.55;;;1.20;99.90;;;;;;2602965;54;20049;31
2021/11/28 10:36:02;;;;;;;76.47;46.08;;;1.30;99.90;;;;;;2602943;54;20061;31
2021/11/28 10:38:38;;;;;;;94.88;53.13;;;1.30;99.90;;;;;;2602974;54;20844;31
2021/11/28 10:41:22;;;;;;;95.15;54.90;;;1.30;99.90;;;;;;2772398;31;20520;31
2021/11/28 10:44:01;;;;;;;89.63;51.87;;;1.30;99.90;;;;;;2603187;54;20038;31
2021/11/28 10:46:39;;;;;;;88.32;52.47;;;1.30;99.90;;;;;;2603129;54;20851;31
2021/11/28 10:49:19;;;;;;;91.32;53.92;;;1.30;99.90;;;;;;2602970;54;20031;31
2021/11/28 10:51:58;;;;;;;91.40;52.70;;;1.40;99.90;;;;;;2602707;54;21380;31
2021/11/28 10:54:36;;;;;;;93.55;55.13;;;1.40;99.90;;;;;;2603102;54;20655;31
2021/11/28 10:57:24;;;;;;;94.22;55.08;;;1.40;99.90;;;;;;2602806;54;20035;31
2021/11/28 11:00:06;;;;;;;88.40;54.95;;;1.40;99.90;;;;;;2602852;54;20027;31
2021/11/28 11:02:44;;;;;;;101.55;58.25;;;1.50;99.90;;;;;;2605418;46;19935;31
2021/11/28 11:05:35;;;;;;;89.43;53.17;;;1.40;99.90;;;;;;2602795;54;20033;31
2021/11/28 11:08:16;;;;;;;95.28;57.58;;;1.40;99.90;;;;;;2602693;54;20030;31
2021/11/28 11:11:07;;;;;;;102.55;62.15;;;1.50;99.90;;;;;;2602796;54;20052;31
2021/11/28 11:13:57;;;;;;;108.20;67.13;;;1.50;99.90;;;;;;2602756;54;20053;31
2021/11/28 11:16:36;;;;;;;108.43;66.00;;;1.50;99.90;;;;;;2602825;54;20030;31
2021/11/28 11:19:30;;;;;;;104.60;63.17;;;1.50;99.90;;;;;;2602064;54;20096;31
2021/11/28 11:22:18;;;;;;;109.53;62.05;;;1.50;99.90;;;;;;2772997;31;22508;31
2021/11/28 11:24:56;;;;;;;89.88;56.13;;;1.50;99.90;;;;;;2621311;46;20133;31
2021/11/28 11:27:36;;;;;;;98.70;59.35;;;1.50;99.90;;;;;;2621222;46;20034;31
2021/11/28 11:30:29;;;;;;;112.63;67.57;;;1.50;99.90;;;;;;2602657;54;20030;31
2021/11/28 11:33:24;;;;;;;111.70;65.72;;;1.40;99.90;;;;;;2602834;54;20904;31
2021/11/28 11:36:03;;;;;;;108.47;65.53;;;1.40;99.90;;;;;;2602443;54;21291;31
2021/11/28 11:38:42;;;;;;;107.10;63.30;;;1.40;99.90;;;;;;2602055;54;20052;31
2021/11/28 11:41:18;;;;;;;98.07;58.70;;;1.50;99.90;;;;;;2602678;54;20019;31
2021/11/28 11:43:59;;;;;;;94.68;56.53;;;1.50;99.90;;;;;;2602027;54;20900;31
2021/11/28 11:46:36;;;;;;;83.75;48.20;;;1.50;99.90;;;;;;2601932;54;20085;31
2021/11/28 11:49:11;;;;;;;86.90;51.65;;;1.50;99.90;;;;;;2602830;54;20467;31
2021/11/28 11:51:50;;;;;;;83.40;50.70;;;1.50;99.90;;;;;;2602824;54;20879;31
2021/11/28 11:57:22;;;;;;;89.27;56.73;;;1.60;99.90;;;;;;2602845;54;20042;31
2021/11/28 12:00:10;;;;;;;94.32;58.30;;;1.60;99.90;;;;;;2601718;54;20034;31
2021/11/28 12:02:53;;;;;;;93.38;53.63;;;1.60;99.90;;;;;;2613042;47;20027;31
2021/11/28 12:05:35;;;;;;;98.53;56.78;;;1.60;99.90;;;;;;2602791;54;20780;31
2021/11/28 12:10:57;;;;;;;105.43;60.42;;;1.50;99.90;;;;;;2601985;54;20882;31
2021/11/28 12:13:50;;;;;;;114.05;63.05;;;1.50;99.90;;;;;;2701209;39;20380;31
2021/11/28 12:16:35;;;;;;;117.88;64.78;;;1.50;99.90;;;;;;2602668;54;20053;31
2021/11/28 12:19:11;;;;;;;133.27;71.47;;;1.40;99.90;;;;;;2701078;39;20433;31
2021/11/28 12:21:48;;;;;;;124.47;67.22;;;1.40;99.90;;;;;;2602464;54;20042;31
2021/11/28 12:24:28;;;;;;;112.18;64.47;;;1.40;99.90;;;;;;2602539;54;20867;31
2021/11/28 12:27:05;;;;;;;112.38;63.47;;;1.40;99.90;;;;;;2603391;54;20112;31
2021/11/28 12:29:42;;;;;;;99.38;56.40;;;1.40;99.90;;;;;;2603462;54;20038;31
2021/11/28 12:32:34;;;;;;;106.95;59.92;;;1.40;99.90;;;;;;2602500;54;20026;31
2021/11/28 12:35:11;;;;;;;110.03;63.05;;;1.40;99.90;;;;;;2603348;54;20892;31
2021/11/28 12:37:52;;;;;;;118.85;70.80;;;1.50;99.90;;;;;;2603431;54;21112;31
2021/11/28 12:40:32;;;;;;;106.18;61.65;;;1.40;99.90;;;;;;2602593;54;21124;31
2021/11/28 12:43:22;;;;;;;106.27;64.60;;;1.50;99.90;;;;;;2603419;54;20026;31
2021/11/28 12:45:59;;;;;;;135.85;76.63;;;1.50;99.90;;;;;;2603209;54;20026;31
2021/11/28 12:48:38;;;;;;;138.90;82.03;;;1.50;99.90;;;;;;2603511;54;20793;31
2021/11/28 12:51:14;;;;;;;132.40;77.15;;;1.50;99.90;;;;;;2603277;54;20037;31
2021/11/28 12:53:51;;;;;;;142.20;80.37;;;1.50;99.90;;;;;;2603301;54;20033;31
2021/11/28 12:56:26;;;;;;;127.50;79.33;;;1.60;99.90;;;;;;2621159;46;20022;31
2021/11/28 12:59:21;;;;;;;124.10;72.45;;;1.60;99.90;;;;;;2602998;54;20581;31
2021/11/28 13:01:59;;;;;;;112.70;64.07;;;1.70;99.90;;;;;;2621541;46;20087;31
2021/11/28 13:04:57;;;;;;;110.83;64.10;;;1.70;99.90;;;;;;2603176;54;20794;31
2021/11/28 13:10:22;;;;;;;113.67;64.17;;;1.60;99.90;;;;;;2603306;54;20810;31
2021/11/28 13:13:01;;;;;;;111.00;62.40;;;1.60;99.90;;;;;;2621755;46;20147;31
2021/11/28 13:15:36;;;;;;;100.35;61.15;;;1.60;99.90;;;;;;2602387;54;20034;31
2021/11/28 13:18:12;;;;;;;100.32;58.95;;;1.60;99.90;;;;;;2603204;54;20031;31
2021/11/28 13:21:15;;;;;;;106.43;60.38;;;1.60;99.90;;;;;;2603148;54;20053;31
2021/11/28 13:24:12;;;;;;;108.15;60.75;;;1.60;99.90;;;;;;2603337;54;20029;31
2021/11/28 13:26:51;;;;;;;107.55;62.10;;;1.50;99.90;;;;;;2603234;54;20186;31
2021/11/28 13:29:31;;;;;;;104.20;60.37;;;1.50;99.90;;;;;;2603462;54;20750;31
2021/11/28 13:32:06;;;;;;;113.87;63.90;;;1.50;99.90;;;;;;2621492;46;20934;31
2021/11/28 13:34:42;;;;;;;114.53;67.97;;;1.50;99.90;;;;;;2603205;54;21274;31
2021/11/28 13:37:23;;;;;;;131.10;73.90;;;1.50;99.90;;;;;;2602975;54;20718;31
2021/11/28 13:40:00;;;;;;;136.38;73.07;;;1.40;99.90;;;;;;2603213;54;20046;31
2021/11/28 13:42:46;;;;;;;143.77;77.38;;;1.40;99.90;;;;;;2603043;54;20085;31
2021/11/28 13:45:21;;;;;;;186.15;88.05;;;1.40;99.90;;;;;;2603065;54;20026;31
2021/11/28 13:47:56;;;;;;;148.90;79.97;;;1.40;99.90;;;;;;2603063;54;20843;31
2021/11/28 13:50:33;;;;;;;130.75;73.63;;;1.40;99.90;;;;;;2603257;54;21146;31
2021/11/28 13:53:07;;;;;;;143.05;76.40;;;1.40;99.90;;;;;;2603174;54;20108;31
2021/11/28 13:55:56;;;;;;;132.43;71.72;;;1.40;99.90;;;;;;2603074;54;20115;31
2021/11/28 13:58:32;;;;;;;119.07;66.53;;;1.50;99.90;;;;;;2603286;54;20026;31
2021/11/28 14:01:08;;;;;;;102.37;62.30;;;1.50;99.90;;;;;;2603047;54;20848;31
2021/11/28 14:03:45;;;;;;;143.25;66.90;;;1.50;99.90;;;;;;2602302;54;20258;31
2021/11/28 14:06:21;;;;;;;102.93;60.30;;;1.50;99.90;;;;;;2602286;54;20038;31
2021/11/28 14:08:57;;;;;;;107.03;60.72;;;1.60;99.90;;;;;;2787181;31;21457;31